Pagrindinis puslapis
METAR-TAF:

METAR-TAF

Oro uostai :

Rørvik, Norvegija

platuma: 64-50N, ilguma: 011-09E, Aukštis: 4 m

Dabartinis oras

Ataskaita buvo paskelbta 6 valandos ir 13 minutes, ne 21:50 UTC
Vėjas 10 kt iš Pietryčių, svyruoja nuo Rytų ir Pietų/Pietryčių
Temperatūra
Slėgis 992 hPa
Matomumas 10 km arba daugiau
Mažai debesys ne aukštis 1000 ft
Su prošvaistėmis ne aukštis 1600 ft
sniegas

METAR: ENRM 302150Z 13010KT 100V150 9999 -SHSN FEW010 BKN016 M054/M06 Q0992

Laikas: 05:03 (04:03 UTC)

Prognozė

Ataskaita buvo paskelbta 8 valandos ir 34 minutes, ne 19:29 UTC
Prognozė galioja nuo 30 metu 19 UTC su 30 metu 22 UTC
Vėjas 8 kt iš Rytų/Pietryčių
Matomumas 10 km arba daugiau
Mažai debesys ne aukštis 2000 ft
Išsisklaidę debesys ne aukštis 4000 ft
sniegas
Laikinai
nuo 30 metu 19 UTC su 30 metu 22 UTC
Vėjas 15 kt iš Pietų/Pietryčių su gūsio iki 25 kt
Matomumas: 0800 m
ne aukštis 700 ft
sniegas

TAF: ENRM 301929Z 3019/3022 12008KT 9999 -SHSN FEW020 SCT040 TEMPO 3019/3022 16015G25KT 0800 SHSN VV007

Orai ataskaitas ir orų prognozės (METAR, TAF).

turimą stotys yra geltonos ir raudonos taškus žemėlapyje.

Perkelti pele per norėdami pamatyti stoties vardą.

Tada spustelėkite, norėdami matyti oro stebėjimo ir prognozės.

Norėdami pakeisti žemėlapį: spustelėkite ant žalios mygtukų su juodo kryžiaus žemyn,; žalią mygtuką su brūkšneliu, jei norite nutolinti; arba žalių rodyklių gretimoms žemėlapius.


METAR-TAF: